Time;durP1;ratioP1;P1;durP2;ratioP2;P2;SDS_P1;SDS_P2;PMS_P1;PMS_P2;Temp;Humidity;BMP_temperature;BMP_pressure;BME280_temperature;BME280_humidity;BME280_pressure;Samples;Min_cycle;Max_cycle;Signal;HPM_P1;HPM_P2
2021/09/10 00:02:20;;;;;;;;;;;16.40;88.40;;;;;;5012152;28;19961;-61
2021/09/10 00:04:45;;;;;;;;;;;16.40;88.50;;;;;;5012031;28;20007;-60
2021/09/10 00:07:11;;;;;;;;;;;16.50;88.40;;;;;;4995031;28;19917;-60
2021/09/10 00:09:37;;;;;;;;;;;16.50;88.80;;;;;;5012238;28;19925;-60
2021/09/10 00:12:02;;;;;;;;;;;16.60;89.00;;;;;;5012585;28;20000;-60
2021/09/10 00:14:28;;;;;;;;;;;16.60;88.90;;;;;;5011810;28;20382;-60
2021/09/10 00:16:54;;;;;;;;;;;16.80;88.50;;;;;;5012406;28;19983;-60
2021/09/10 00:19:19;;;;;;;;;;;16.80;88.90;;;;;;5012376;28;20424;-60
2021/09/10 00:21:45;;;;;;;;;;;16.90;88.90;;;;;;5011797;28;19922;-61
2021/09/10 00:24:10;;;;;;;;;;;16.90;88.90;;;;;;5012338;28;19918;-60
2021/09/10 00:26:36;;;;;;;;;;;16.90;88.40;;;;;;4994240;28;19922;-60
2021/09/10 00:29:01;;;;;;;;;;;16.90;88.90;;;;;;4994243;28;20020;-61
2021/09/10 00:31:27;;;;;;;;;;;17.00;88.90;;;;;;5012216;28;19917;-60
2021/09/10 00:33:52;;;;;;;;;;;17.00;88.90;;;;;;5011722;28;19921;-61
2021/09/10 00:36:18;;;;;;;;;;;17.10;88.90;;;;;;5011848;28;20000;-60
2021/09/10 00:38:43;;;;;;;;;;;17.10;88.50;;;;;;4994448;28;20396;-60
2021/09/10 00:41:09;;;;;;;;;;;17.10;88.90;;;;;;4994064;28;19975;-61
2021/09/10 00:43:34;;;;;;;;;;;17.10;88.90;;;;;;5011918;28;19924;-60
2021/09/10 00:46:00;;;;;;;;;;;17.20;89.00;;;;;;5011820;28;19917;-60
2021/09/10 00:48:26;;;;;;;;;;;17.20;88.60;;;;;;4994016;28;20028;-60
2021/09/10 00:50:52;;;;;;;;;;;17.20;89.00;;;;;;5011882;28;19917;-60
2021/09/10 00:53:18;;;;;;;;;;;17.20;89.00;;;;;;5011793;28;19924;-60
2021/09/10 00:55:45;;;;;;;;;;;17.20;89.00;;;;;;5011055;28;19925;-60
2021/09/10 00:58:10;;;;;;;;;;;17.30;88.60;;;;;;5011711;28;19917;-60
2021/09/10 01:00:36;;;;;;;;;;;17.30;88.90;;;;;;5011682;28;20008;-60
2021/09/10 01:03:02;;;;;;;;;;;17.40;88.90;;;;;;4993805;28;19924;-60
2021/09/10 01:05:28;;;;;;;;;;;17.30;88.90;;;;;;5011563;28;19917;-60
2021/09/10 01:07:54;;;;;;;;;;;17.40;88.50;;;;;;4977575;28;19925;-61
2021/09/10 01:10:20;;;;;;;;;;;17.40;88.90;;;;;;5011587;28;19918;-60
2021/09/10 01:12:46;;;;;;;;;;;17.40;88.90;;;;;;5011558;28;20306;-60
2021/09/10 01:15:12;;;;;;;;;;;17.40;88.90;;;;;;5010858;28;20384;-60
2021/09/10 01:17:37;;;;;;;;;;;17.40;88.80;;;;;;5012093;28;19917;-60
2021/09/10 01:20:05;;;;;;;;;;;17.40;88.80;;;;;;5015666;28;20405;-60
2021/09/10 01:22:30;;;;;;;;;;;17.50;88.80;;;;;;5015030;28;19928;-60
2021/09/10 01:25:05;;;;;;;;;;;17.50;88.90;;;;;;5015237;28;20400;-61
2021/09/10 01:27:31;;;;;;;;;;;17.50;88.90;;;;;;5014814;28;19928;-60
2021/09/10 01:29:57;;;;;;;;;;;17.40;88.40;;;;;;5015508;28;19917;-60
2021/09/10 01:32:23;;;;;;;;;;;17.50;88.90;;;;;;5015498;28;20373;-60
2021/09/10 01:34:49;;;;;;;;;;;17.50;88.90;;;;;;5014831;28;19925;-61
2021/09/10 01:37:14;;;;;;;;;;;17.50;88.50;;;;;;5015400;28;19940;-60
2021/09/10 01:39:40;;;;;;;;;;;17.50;88.90;;;;;;5014987;28;20279;-61
2021/09/10 01:42:05;;;;;;;;;;;17.50;88.90;;;;;;5015131;28;19925;-60
2021/09/10 01:44:31;;;;;;;;;;;17.50;88.90;;;;;;5014979;28;19918;-60
2021/09/10 01:46:56;;;;;;;;;;;17.40;88.30;;;;;;5014707;28;19979;-61
2021/09/10 01:49:22;;;;;;;;;;;17.50;88.70;;;;;;5015160;28;19925;-60
2021/09/10 01:51:47;;;;;;;;;;;17.40;88.70;;;;;;5015072;28;19967;-60
2021/09/10 01:54:13;;;;;;;;;;;17.40;88.70;;;;;;5014702;28;19953;-61
2021/09/10 01:56:38;;;;;;;;;;;17.40;88.40;;;;;;5014819;28;19929;-60
2021/09/10 01:59:04;;;;;;;;;;;17.40;88.80;;;;;;5014984;28;19924;-60
2021/09/10 02:01:34;;;;;;;;;;;17.30;88.80;;;;;;5014614;28;19964;-60
2021/09/10 02:04:00;;;;;;;;;;;17.30;88.90;;;;;;5014858;28;20004;-60
2021/09/10 02:06:26;;;;;;;;;;;17.30;88.60;;;;;;5014147;28;19985;-60
2021/09/10 02:08:52;;;;;;;;;;;17.30;89.00;;;;;;5014757;28;19960;-60
2021/09/10 02:11:18;;;;;;;;;;;17.20;89.00;;;;;;4997276;28;19918;-60
2021/09/10 02:13:43;;;;;;;;;;;17.20;89.20;;;;;;5014287;28;20340;-61
2021/09/10 02:16:11;;;;;;;;;;;17.30;89.20;;;;;;5014540;28;19918;-60
2021/09/10 02:18:37;;;;;;;;;;;17.30;88.80;;;;;;5014751;28;20024;-60
2021/09/10 02:21:03;;;;;;;;;;;17.30;89.20;;;;;;5012891;28;19921;-61
2021/09/10 02:23:28;;;;;;;;;;;17.20;89.20;;;;;;5014588;28;19925;-60
2021/09/10 02:25:54;;;;;;;;;;;17.20;89.20;;;;;;5013731;28;20008;-60
2021/09/10 02:28:19;;;;;;;;;;;17.20;88.80;;;;;;5013732;28;19944;-60
2021/09/10 02:30:45;;;;;;;;;;;17.20;89.30;;;;;;4996936;28;19924;-60
2021/09/10 02:33:10;;;;;;;;;;;17.10;89.30;;;;;;5013821;28;20009;-60
2021/09/10 02:35:36;;;;;;;;;;;17.10;89.50;;;;;;5013923;28;20313;-60
2021/09/10 02:38:01;;;;;;;;;;;17.00;89.10;;;;;;5013753;28;19917;-60
2021/09/10 02:40:27;;;;;;;;;;;17.10;89.70;;;;;;5014136;28;19925;-61
2021/09/10 02:42:52;;;;;;;;;;;17.10;89.80;;;;;;5014050;28;19924;-60
2021/09/10 02:45:18;;;;;;;;;;;17.10;90.00;;;;;;5013514;28;19970;-61
2021/09/10 02:47:44;;;;;;;;;;;17.20;89.90;;;;;;5014092;28;20068;-60
2021/09/10 02:50:09;;;;;;;;;;;17.10;90.10;;;;;;5014045;28;19940;-60
2021/09/10 02:52:36;;;;;;;;;;;17.20;90.20;;;;;;5013375;28;20378;-61
2021/09/10 02:55:03;;;;;;;;;;;17.20;90.10;;;;;;5013850;28;19917;-60
2021/09/10 02:57:29;;;;;;;;;;;17.20;89.70;;;;;;5013363;28;19924;-61
2021/09/10 02:59:54;;;;;;;;;;;17.20;90.00;;;;;;4996374;28;19917;-60
2021/09/10 03:02:21;;;;;;;;;;;17.20;90.00;;;;;;4996271;28;20385;-60
2021/09/10 03:04:48;;;;;;;;;;;17.20;90.10;;;;;;5012911;28;20385;-61
2021/09/10 03:07:14;;;;;;;;;;;17.20;90.00;;;;;;5013570;28;19968;-60
2021/09/10 03:09:39;;;;;;;;;;;17.20;90.30;;;;;;5013715;28;19918;-60
2021/09/10 03:12:05;;;;;;;;;;;17.30;90.30;;;;;;5013107;28;19918;-61
2021/09/10 03:14:31;;;;;;;;;;;17.30;90.30;;;;;;5013275;28;19933;-60
2021/09/10 03:16:57;;;;;;;;;;;17.40;90.20;;;;;;4995916;28;19943;-60
2021/09/10 03:19:24;;;;;;;;;;;17.40;90.40;;;;;;5013286;28;19917;-60
2021/09/10 03:21:49;;;;;;;;;;;17.40;90.30;;;;;;5013244;28;19971;-61
2021/09/10 03:24:15;;;;;;;;;;;17.50;90.30;;;;;;5012759;28;19918;-61
2021/09/10 03:26:41;;;;;;;;;;;17.50;90.20;;;;;;5012854;28;19917;-60
2021/09/10 03:29:07;;;;;;;;;;;17.50;90.30;;;;;;5013341;28;20368;-60
2021/09/10 03:31:32;;;;;;;;;;;17.50;90.40;;;;;;5012822;28;19953;-61
2021/09/10 03:33:58;;;;;;;;;;;17.60;90.40;;;;;;5013244;28;19952;-60
2021/09/10 03:36:24;;;;;;;;;;;17.60;90.20;;;;;;4995306;28;19941;-60
2021/09/10 03:38:49;;;;;;;;;;;17.60;90.40;;;;;;5012662;28;19921;-61
2021/09/10 03:41:15;;;;;;;;;;;17.60;90.40;;;;;;5012207;28;19928;-61
2021/09/10 03:43:42;;;;;;;;;;;17.60;90.30;;;;;;5013009;28;19917;-60
2021/09/10 03:46:10;;;;;;;;;;;17.70;90.40;;;;;;5012368;28;20109;-60
2021/09/10 03:48:36;;;;;;;;;;;17.70;90.20;;;;;;5012951;28;19943;-60
2021/09/10 03:51:02;;;;;;;;;;;17.70;90.30;;;;;;5012604;28;19917;-61
2021/09/10 03:53:28;;;;;;;;;;;17.70;90.40;;;;;;5012858;28;19917;-60
2021/09/10 03:55:53;;;;;;;;;;;17.70;90.40;;;;;;5012508;28;20325;-60
2021/09/10 03:58:19;;;;;;;;;;;17.80;90.50;;;;;;5012390;28;19933;-61
2021/09/10 04:00:45;;;;;;;;;;;17.80;90.60;;;;;;5012622;28;19921;-60
2021/09/10 04:03:11;;;;;;;;;;;17.90;90.60;;;;;;5012854;28;19918;-60
2021/09/10 04:05:36;;;;;;;;;;;18.00;90.60;;;;;;5011815;28;19972;-61
2021/09/10 04:08:03;;;;;;;;;;;18.10;90.70;;;;;;5012681;28;19924;-60
2021/09/10 04:10:29;;;;;;;;;;;18.10;90.60;;;;;;5012381;28;20012;-61
2021/09/10 04:12:55;;;;;;;;;;;18.20;90.70;;;;;;5012502;28;19972;-60
2021/09/10 04:15:21;;;;;;;;;;;18.30;90.60;;;;;;5012175;28;19921;-60
2021/09/10 04:17:46;;;;;;;;;;;18.40;90.60;;;;;;5012026;28;19996;-60
2021/09/10 04:20:13;;;;;;;;;;;18.40;90.60;;;;;;5012417;28;19918;-60
2021/09/10 04:22:39;;;;;;;;;;;18.50;90.70;;;;;;5012300;28;19929;-60
2021/09/10 04:25:05;;;;;;;;;;;18.50;90.60;;;;;;5011709;28;19992;-60
2021/09/10 04:27:30;;;;;;;;;;;18.50;90.50;;;;;;5025577;23;19968;-67
2021/09/10 04:29:58;;;;;;;;;;;18.50;90.50;;;;;;5012054;28;19921;-67
2021/09/10 04:32:23;;;;;;;;;;;18.40;90.40;;;;;;5010410;28;20269;-67
2021/09/10 04:34:49;;;;;;;;;;;18.40;90.40;;;;;;4993848;28;19925;-67
2021/09/10 04:37:15;;;;;;;;;;;18.30;90.50;;;;;;5012296;28;20086;-68
2021/09/10 04:39:40;;;;;;;;;;;18.30;90.60;;;;;;5011671;28;19926;-68
2021/09/10 04:42:06;;;;;;;;;;;18.30;90.70;;;;;;5011809;28;19928;-67
2021/09/10 04:44:31;;;;;;;;;;;18.30;90.80;;;;;;5011866;28;19917;-68
2021/09/10 04:46:57;;;;;;;;;;;18.30;90.90;;;;;;4993994;28;19917;-66
2021/09/10 04:49:22;;;;;;;;;;;18.30;91.00;;;;;;5011754;28;19924;-67
2021/09/10 04:51:48;;;;;;;;;;;18.30;91.00;;;;;;5010910;28;19917;-67
2021/09/10 04:54:16;;;;;;;;;;;18.30;91.10;;;;;;5011536;28;19924;-68
2021/09/10 04:56:42;;;;;;;;;;;18.30;91.10;;;;;;5011508;28;19981;-67
2021/09/10 04:59:08;;;;;;;;;;;18.40;91.20;;;;;;5011516;28;19917;-67
2021/09/10 05:01:33;;;;;;;;;;;18.30;91.30;;;;;;5011796;28;20404;-67
2021/09/10 05:03:59;;;;;;;;;;;18.40;91.40;;;;;;5011623;28;19972;-67
2021/09/10 05:06:24;;;;;;;;;;;18.40;91.40;;;;;;5011056;28;19957;-67
2021/09/10 05:08:50;;;;;;;;;;;18.40;91.50;;;;;;4993856;28;19997;-66
2021/09/10 05:11:16;;;;;;;;;;;18.50;91.50;;;;;;5011195;28;19918;-66
2021/09/10 05:13:41;;;;;;;;;;;18.50;91.50;;;;;;5011434;28;20278;-67
2021/09/10 05:16:07;;;;;;;;;;;18.50;91.60;;;;;;5011159;28;19984;-68
2021/09/10 05:18:32;;;;;;;;;;;18.50;91.60;;;;;;5010850;28;19925;-68
2021/09/10 05:20:59;;;;;;;;;;;18.50;91.60;;;;;;5011272;28;20408;-68
2021/09/10 05:23:25;;;;;;;;;;;18.60;91.70;;;;;;5011533;28;20289;-68
2021/09/10 05:25:50;;;;;;;;;;;18.50;91.70;;;;;;5010338;28;19925;-68
2021/09/10 05:28:16;;;;;;;;;;;18.50;91.70;;;;;;5011226;28;19922;-69
2021/09/10 05:30:41;;;;;;;;;;;18.50;91.70;;;;;;5010924;28;20399;-68
2021/09/10 05:33:07;;;;;;;;;;;18.40;91.80;;;;;;4994063;28;19944;-69
2021/09/10 05:35:32;;;;;;;;;;;18.40;91.90;;;;;;5011139;28;19917;-69
2021/09/10 05:37:58;;;;;;;;;;;18.40;92.00;;;;;;5010573;28;19917;-70
2021/09/10 05:40:24;;;;;;;;;;;18.40;92.10;;;;;;4993610;28;19924;-69
2021/09/10 05:42:49;;;;;;;;;;;18.40;92.10;;;;;;5010984;28;19921;-67
2021/09/10 05:45:15;;;;;;;;;;;18.50;92.20;;;;;;5010356;28;19925;-68
2021/09/10 05:47:41;;;;;;;;;;;18.50;92.20;;;;;;5011011;28;19918;-68
2021/09/10 05:50:07;;;;;;;;;;;18.50;92.20;;;;;;4993462;28;20313;-68
2021/09/10 05:52:32;;;;;;;;;;;18.50;92.30;;;;;;5010810;28;19924;-67
2021/09/10 05:54:58;;;;;;;;;;;18.50;92.20;;;;;;5010647;28;19918;-68
2021/09/10 05:57:23;;;;;;;;;;;18.50;92.30;;;;;;4993195;28;19918;-69
2021/09/10 05:59:49;;;;;;;;;;;18.50;92.40;;;;;;5011248;28;19917;-68
2021/09/10 06:02:14;;;;;;;;;;;18.70;92.50;;;;;;4993555;28;19925;-69
2021/09/10 06:04:40;;;;;;;;;;;18.50;92.50;;;;;;5013646;28;19925;-67
2021/09/10 06:07:05;;;;;;;;;;;18.60;92.60;;;;;;5014544;28;19917;-67
2021/09/10 06:09:31;;;;;;;;;;;18.50;92.50;;;;;;5014709;28;20230;-68
2021/09/10 06:11:57;;;;;;;;;;;18.50;92.50;;;;;;5014460;28;19922;-68
2021/09/10 06:14:22;;;;;;;;;;;18.40;92.50;;;;;;5015094;28;19941;-68
2021/09/10 06:16:48;;;;;;;;;;;18.40;92.50;;;;;;5014801;28;20004;-67
2021/09/10 06:19:13;;;;;;;;;;;18.40;92.60;;;;;;4996468;28;19925;-67
2021/09/10 06:21:39;;;;;;;;;;;18.40;92.80;;;;;;5015311;28;19921;-67
2021/09/10 06:24:04;;;;;;;;;;;18.40;92.90;;;;;;5014653;28;19968;-66
2021/09/10 06:26:30;;;;;;;;;;;18.40;92.90;;;;;;5014328;28;20385;-67
2021/09/10 06:28:55;;;;;;;;;;;18.40;93.00;;;;;;4997027;28;19925;-69
2021/09/10 06:31:21;;;;;;;;;;;18.30;93.20;;;;;;5014096;28;20004;-71
2021/09/10 06:33:47;;;;;;;;;;;18.30;94.30;;;;;;5014531;28;19925;-72
2021/09/10 06:36:12;;;;;;;;;;;18.30;95.00;;;;;;5014248;28;19972;-73
2021/09/10 06:38:38;;;;;;;;;;;18.20;95.70;;;;;;5013918;28;19924;-71
2021/09/10 06:41:03;;;;;;;;;;;18.20;96.10;;;;;;5014506;28;20020;-72
2021/09/10 06:43:29;;;;;;;;;;;18.10;96.50;;;;;;5013784;28;19956;-73
2021/09/10 06:45:54;;;;;;;;;;;18.10;96.80;;;;;;5014018;28;19921;-73
2021/09/10 06:48:20;;;;;;;;;;;18.10;97.10;;;;;;4996501;28;19929;-71
2021/09/10 06:50:45;;;;;;;;;;;18.10;97.40;;;;;;5013732;28;20297;-71
2021/09/10 06:53:11;;;;;;;;;;;18.00;97.50;;;;;;5014121;28;19976;-70
2021/09/10 06:55:37;;;;;;;;;;;18.00;98.10;;;;;;5013888;28;19918;-71
2021/09/10 06:58:02;;;;;;;;;;;17.90;98.60;;;;;;5013431;28;19949;-73
2021/09/10 07:00:28;;;;;;;;;;;17.80;99.10;;;;;;5014070;28;19922;-73
2021/09/10 07:02:54;;;;;;;;;;;17.70;99.50;;;;;;5013963;28;19921;-72
2021/09/10 07:05:19;;;;;;;;;;;17.70;99.90;;;;;;5013117;28;19917;-73
2021/09/10 07:07:45;;;;;;;;;;;17.80;99.90;;;;;;4996171;28;20008;-73
2021/09/10 07:10:10;;;;;;;;;;;17.80;99.90;;;;;;5013366;28;19983;-70
2021/09/10 07:12:36;;;;;;;;;;;17.80;99.90;;;;;;4996264;28;19917;-71
2021/09/10 07:15:02;;;;;;;;;;;17.80;99.90;;;;;;5013302;28;20031;-72
2021/09/10 07:17:29;;;;;;;;;;;17.80;99.90;;;;;;5013215;28;20389;-72
2021/09/10 07:19:55;;;;;;;;;;;17.80;99.90;;;;;;4996191;28;19918;-73
2021/09/10 07:22:21;;;;;;;;;;;17.80;99.90;;;;;;5013709;28;19928;-73
2021/09/10 07:24:46;;;;;;;;;;;17.80;99.90;;;;;;5012727;28;19925;-70
2021/09/10 07:27:12;;;;;;;;;;;17.80;99.90;;;;;;4995801;28;19929;-70
2021/09/10 07:29:37;;;;;;;;;;;17.80;99.90;;;;;;5013589;28;19959;-70
2021/09/10 07:32:03;;;;;;;;;;;17.80;99.90;;;;;;5012917;28;20385;-72
2021/09/10 07:34:28;;;;;;;;;;;17.90;99.90;;;;;;5013285;28;19917;-70
2021/09/10 07:36:54;;;;;;;;;;;17.80;99.90;;;;;;5013100;28;20378;-70
2021/09/10 07:39:21;;;;;;;;;;;17.80;99.90;;;;;;5012801;28;19925;-71
2021/09/10 07:41:47;;;;;;;;;;;17.80;99.90;;;;;;5013100;28;19929;-72
2021/09/10 07:44:14;;;;;;;;;;;17.80;99.90;;;;;;5012610;28;20404;-70
2021/09/10 07:46:40;;;;;;;;;;;17.80;99.90;;;;;;5012955;28;19960;-70
2021/09/10 07:49:06;;;;;;;;;;;17.90;99.90;;;;;;5013079;28;19971;-71
2021/09/10 07:51:32;;;;;;;;;;;17.90;99.90;;;;;;5012646;28;19963;-69
2021/09/10 07:53:57;;;;;;;;;;;17.90;99.90;;;;;;5013002;28;20329;-69
2021/09/10 07:56:23;;;;;;;;;;;17.90;99.90;;;;;;5012249;28;19924;-69
2021/09/10 07:58:48;;;;;;;;;;;18.00;99.90;;;;;;5012745;28;19917;-70
2021/09/10 08:01:14;;;;;;;;;;;18.00;99.90;;;;;;5012814;28;20015;-70
2021/09/10 08:03:39;;;;;;;;;;;18.00;99.90;;;;;;5012746;28;19918;-69
2021/09/10 08:06:05;;;;;;;;;;;18.00;99.90;;;;;;5012372;28;19975;-69
2021/09/10 08:08:31;;;;;;;;;;;18.10;99.90;;;;;;5012873;28;19945;-69
2021/09/10 08:10:56;;;;;;;;;;;18.10;99.90;;;;;;5012263;28;19971;-69
2021/09/10 08:13:22;;;;;;;;;;;18.10;99.90;;;;;;5012711;28;19918;-69
2021/09/10 08:15:47;;;;;;;;;;;18.10;99.90;;;;;;5012267;28;20328;-69
2021/09/10 08:18:13;;;;;;;;;;;18.20;99.90;;;;;;4994902;28;19917;-68
2021/09/10 08:20:39;;;;;;;;;;;18.20;99.90;;;;;;5012580;28;19917;-70
2021/09/10 08:23:04;;;;;;;;;;;18.30;99.90;;;;;;5012227;28;19928;-70
2021/09/10 08:25:30;;;;;;;;;;;18.20;99.90;;;;;;5012003;28;19977;-70
2021/09/10 08:27:55;;;;;;;;;;;18.30;99.90;;;;;;4994496;28;19928;-70
2021/09/10 08:30:21;;;;;;;;;;;18.30;99.90;;;;;;5011814;28;19928;-70
2021/09/10 08:32:46;;;;;;;;;;;18.40;99.90;;;;;;5012355;28;20413;-70
2021/09/10 08:35:12;;;;;;;;;;;18.40;99.90;;;;;;5011908;28;20001;-70
2021/09/10 08:37:37;;;;;;;;;;;18.40;99.90;;;;;;4994191;28;19917;-70
2021/09/10 08:40:04;;;;;;;;;;;18.40;99.90;;;;;;5012222;28;19918;-70
2021/09/10 08:42:29;;;;;;;;;;;18.40;99.90;;;;;;5011975;28;19932;-70
2021/09/10 08:44:55;;;;;;;;;;;18.40;99.90;;;;;;5011340;28;19918;-70
2021/09/10 08:47:22;;;;;;;;;;;18.40;99.90;;;;;;5011973;28;19925;-70
2021/09/10 08:49:48;;;;;;;;;;;18.50;99.90;;;;;;5011543;28;20356;-69
2021/09/10 08:52:14;;;;;;;;;;;18.50;99.90;;;;;;5011799;28;20012;-68
2021/09/10 08:54:40;;;;;;;;;;;18.50;99.90;;;;;;4994063;28;19917;-68
2021/09/10 08:57:05;;;;;;;;;;;18.50;99.90;;;;;;5011233;28;20000;-69
2021/09/10 08:59:31;;;;;;;;;;;18.50;99.90;;;;;;5011931;28;20362;-68
2021/09/10 09:01:57;;;;;;;;;;;18.50;99.90;;;;;;5011835;28;19948;-68
2021/09/10 09:04:28;;;;;;;;;;;18.50;99.90;;;;;;5011176;28;19925;-67
2021/09/10 09:06:55;;;;;;;;;;;18.50;99.90;;;;;;5011719;28;19925;-69
2021/09/10 09:09:33;;;;;;;;;;;18.50;99.90;;;;;;4994395;28;19993;-69
2021/09/10 09:12:19;;;;;;;;;;;18.40;99.90;;;;;;5012050;28;19917;-69
2021/09/10 09:14:57;;;;;;;;;;;18.40;99.90;;;;;;4994106;28;19924;-70
2021/09/10 09:17:25;;;;;;;;;;;18.40;99.90;;;;;;4994280;28;19922;-70
2021/09/10 09:20:09;;;;;;;;;;;18.50;99.90;;;;;;5011658;28;19918;-69
2021/09/10 09:22:52;;;;;;;;;;;18.50;99.90;;;;;;5011035;28;20012;-69
2021/09/10 09:25:18;;;;;;;;;;;18.40;99.90;;;;;;5011280;28;19917;-70
2021/09/10 09:27:44;;;;;;;;;;;18.40;99.90;;;;;;4993266;28;19968;-71
2021/09/10 09:30:09;;;;;;;;;;;18.40;99.90;;;;;;4994087;28;22441;-70
2021/09/10 09:32:48;;;;;;;;;;;18.50;99.90;;;;;;4993957;28;20517;-71
2021/09/10 09:35:14;;;;;;;;;;;18.50;99.90;;;;;;5010734;28;19918;-71
2021/09/10 09:37:39;;;;;;;;;;;18.50;99.90;;;;;;5011579;28;19917;-71
2021/09/10 09:40:05;;;;;;;;;;;18.50;99.90;;;;;;4997865;28;19949;-72
2021/09/10 09:42:32;;;;;;;;;;;18.40;99.90;;;;;;5015095;28;19952;-71
2021/09/10 09:45:14;;;;;;;;;;;18.40;99.90;;;;;;5015094;28;19948;-71
2021/09/10 09:47:40;;;;;;;;;;;18.40;99.90;;;;;;5014975;28;20338;-72
2021/09/10 09:50:11;;;;;;;;;;;18.40;99.90;;;;;;5015278;28;20370;-71
2021/09/10 09:52:36;;;;;;;;;;;18.40;99.90;;;;;;4997470;28;20306;-71
2021/09/10 09:55:06;;;;;;;;;;;18.40;99.90;;;;;;4997547;28;19924;-72
2021/09/10 09:57:33;;;;;;;;;;;18.40;99.90;;;;;;5014634;28;19917;-72
2021/09/10 10:00:02;;;;;;;;;;;18.50;99.90;;;;;;5015041;28;19924;-73
2021/09/10 10:02:30;;;;;;;;;;;18.50;99.90;;;;;;5014885;28;20398;-73
2021/09/10 10:04:59;;;;;;;;;;;18.50;99.90;;;;;;5014248;28;19996;-71
2021/09/10 10:07:26;;;;;;;;;;;18.50;99.90;;;;;;5014840;28;20334;-72
2021/09/10 10:09:52;;;;;;;;;;;18.40;99.90;;;;;;5014620;28;19989;-72
2021/09/10 10:12:21;;;;;;;;;;;18.40;99.90;;;;;;5014754;28;19918;-73
2021/09/10 10:14:48;;;;;;;;;;;18.40;99.90;;;;;;5013826;28;20389;-71
2021/09/10 10:17:34;;;;;;;;;;;18.40;99.90;;;;;;5014209;28;19924;-72
2021/09/10 10:19:59;;;;;;;;;;;18.40;99.90;;;;;;5014721;28;19917;-72
2021/09/10 10:22:42;;;;;;;;;;;18.40;99.90;;;;;;5013996;28;19921;-71
2021/09/10 10:25:08;;;;;;;;;;;18.40;99.90;;;;;;5014413;28;20439;-71
2021/09/10 10:27:40;;;;;;;;;;;18.40;99.90;;;;;;5014382;28;20285;-69
2021/09/10 10:30:18;;;;;;;;;;;18.40;99.90;;;;;;5014037;28;20381;-69
2021/09/10 10:32:47;;;;;;;;;;;18.40;99.90;;;;;;5014240;28;19949;-68
2021/09/10 10:35:24;;;;;;;;;;;18.40;99.90;;;;;;5014238;28;19936;-68
2021/09/10 10:37:53;;;;;;;;;;;18.40;99.90;;;;;;5013974;28;20029;-69
2021/09/10 10:40:24;;;;;;;;;;;18.50;99.90;;;;;;5014279;28;19924;-68
2021/09/10 10:42:51;;;;;;;;;;;18.50;99.90;;;;;;5013876;28;20440;-69
2021/09/10 10:45:16;;;;;;;;;;;18.50;99.90;;;;;;5013887;28;19913;-68
2021/09/10 10:47:42;;;;;;;;;;;18.60;99.90;;;;;;5014081;28;19988;-68
2021/09/10 10:50:26;;;;;;;;;;;18.60;99.90;;;;;;5013274;28;19917;-67
2021/09/10 10:52:55;;;;;;;;;;;18.70;99.90;;;;;;5014074;28;20397;-67
2021/09/10 10:55:34;;;;;;;;;;;18.90;99.90;;;;;;5013268;28;19923;-67
2021/09/10 10:58:19;;;;;;;;;;;19.00;99.90;;;;;;4996392;28;19924;-67
2021/09/10 11:00:51;;;;;;;;;;;19.20;99.90;;;;;;5013717;28;20012;-68
2021/09/10 11:03:17;;;;;;;;;;;19.30;99.90;;;;;;5013855;28;19917;-68
2021/09/10 11:05:46;;;;;;;;;;;19.40;99.90;;;;;;5013265;28;19926;-68
2021/09/10 11:08:15;;;;;;;;;;;19.50;99.90;;;;;;5013691;28;19918;-68
2021/09/10 11:10:41;;;;;;;;;;;19.60;99.90;;;;;;5013220;28;19924;-68
2021/09/10 11:13:07;;;;;;;;;;;19.60;99.90;;;;;;5013711;28;19917;-67
2021/09/10 11:15:34;;;;;;;;;;;19.70;99.90;;;;;;5013323;28;19968;-68
2021/09/10 11:18:01;;;;;;;;;;;19.80;99.90;;;;;;5012971;28;19971;-66
2021/09/10 11:20:28;;;;;;;;;;;20.00;99.90;;;;;;5013607;28;20297;-68
2021/09/10 11:22:53;;;;;;;;;;;20.10;99.90;;;;;;5013377;28;19928;-67
2021/09/10 11:25:19;;;;;;;;;;;20.20;99.90;;;;;;5012540;28;19917;-68
2021/09/10 11:27:45;;;;;;;;;;;20.40;99.90;;;;;;5013102;28;20344;-68
2021/09/10 11:30:11;;;;;;;;;;;20.50;99.90;;;;;;4995319;28;19963;-68
2021/09/10 11:32:37;;;;;;;;;;;20.60;99.90;;;;;;5013188;28;19956;-68
2021/09/10 11:35:23;;;;;;;;;;;20.70;99.90;;;;;;5013053;28;19964;-68
2021/09/10 11:37:50;;;;;;;;;;;20.90;99.90;;;;;;5010733;28;19967;-69
2021/09/10 11:40:15;;;;;;;;;;;21.00;99.90;;;;;;5013041;28;19921;-68
2021/09/10 11:42:42;;;;;;;;;;;21.00;99.90;;;;;;5012421;28;19921;-68
2021/09/10 11:45:14;;;;;;;;;;;21.10;99.90;;;;;;5012900;28;19918;-69
2021/09/10 11:47:41;;;;;;;;;;;21.00;99.90;;;;;;5012428;28;19918;-69
2021/09/10 11:50:08;;;;;;;;;;;21.10;99.90;;;;;;5012972;28;20302;-69
2021/09/10 11:52:36;;;;;;;;;;;21.10;99.90;;;;;;5012870;28;19925;-69
2021/09/10 11:55:06;;;;;;;;;;;21.10;99.90;;;;;;4994687;28;19927;-70
2021/09/10 11:57:32;;;;;;;;;;;21.20;99.90;;;;;;4995159;28;19925;-69
2021/09/10 11:59:58;;;;;;;;;;;21.30;99.90;;;;;;5012107;28;20017;-69
2021/09/10 12:02:24;;;;;;;;;;;21.40;99.90;;;;;;5011979;28;20288;-69
2021/09/10 12:04:54;;;;;;;;;;;21.40;99.90;;;;;;5011927;28;19926;-69
2021/09/10 12:07:28;;;;;;;;;;;21.40;99.90;;;;;;5012080;28;20004;-69
2021/09/10 12:09:54;;;;;;;;;;;21.30;99.90;;;;;;5012528;28;19992;-69
2021/09/10 12:12:23;;;;;;;;;;;21.30;99.90;;;;;;4994379;28;20301;-69
2021/09/10 12:14:52;;;;;;;;;;;21.40;99.90;;;;;;5012198;28;20413;-69
2021/09/10 12:17:17;;;;;;;;;;;21.50;99.90;;;;;;5012274;28;19924;-69
2021/09/10 12:20:08;;;;;;;;;;;21.50;99.90;;;;;;4994581;28;19917;-69
2021/09/10 12:22:36;;;;;;;;;;;21.50;99.90;;;;;;4998913;28;20370;-68
2021/09/10 12:25:22;;;;;;;;;;;21.60;99.90;;;;;;5010771;28;19918;-68
2021/09/10 12:27:49;;;;;;;;;;;21.70;99.90;;;;;;5011297;28;19953;-68
2021/09/10 12:30:16;;;;;;;;;;;21.60;99.90;;;;;;5012054;28;19918;-68
2021/09/10 12:32:41;;;;;;;;;;;21.60;99.90;;;;;;5012009;28;19921;-68
2021/09/10 12:35:08;;;;;;;;;;;21.50;99.90;;;;;;5011449;28;19918;-68
2021/09/10 12:37:37;;;;;;;;;;;21.40;99.90;;;;;;5011944;28;19968;-68
2021/09/10 12:40:03;;;;;;;;;;;21.40;99.90;;;;;;5011651;28;20297;-68
2021/09/10 12:42:29;;;;;;;;;;;21.30;99.90;;;;;;5011936;28;20024;-68
2021/09/10 12:44:57;;;;;;;;;;;21.30;99.90;;;;;;4994373;28;20007;-67
2021/09/10 12:47:23;;;;;;;;;;;21.20;99.90;;;;;;5011346;28;19941;-68
2021/09/10 12:49:52;;;;;;;;;;;21.00;99.90;;;;;;5011961;28;19917;-67
2021/09/10 12:52:17;;;;;;;;;;;20.90;99.90;;;;;;5011443;28;20439;-68
2021/09/10 12:54:44;;;;;;;;;;;20.90;99.90;;;;;;5011230;28;19917;-67
2021/09/10 12:57:09;;;;;;;;;;;20.90;99.90;;;;;;5011806;28;19918;-66
2021/09/10 12:59:39;;;;;;;;;;;21.00;99.90;;;;;;5011439;28;20007;-65
2021/09/10 13:02:12;;;;;;;;;;;21.10;99.90;;;;;;4994228;28;19921;-68
2021/09/10 13:04:39;;;;;;;;;;;21.00;99.90;;;;;;5011092;28;19917;-67
2021/09/10 13:07:04;;;;;;;;;;;21.00;99.90;;;;;;5011398;28;19921;-67
2021/09/10 13:09:34;;;;;;;;;;;20.90;99.90;;;;;;5011583;28;20463;-66
2021/09/10 13:12:01;;;;;;;;;;;20.90;99.90;;;;;;5010803;28;20008;-65
2021/09/10 13:14:27;;;;;;;;;;;20.80;99.90;;;;;;5011345;28;20433;-67
2021/09/10 13:16:54;;;;;;;;;;;20.80;99.90;;;;;;5011392;28;20019;-66
2021/09/10 13:19:20;;;;;;;;;;;20.80;99.90;;;;;;5011109;28;20017;-66
2021/09/10 13:21:48;;;;;;;;;;;20.80;99.90;;;;;;5011340;28;19926;-67
2021/09/10 13:24:17;;;;;;;;;;;20.80;99.90;;;;;;5011065;28;20289;-66
2021/09/10 13:26:43;;;;;;;;;;;20.90;99.90;;;;;;4995055;28;19926;-65
2021/09/10 13:29:09;;;;;;;;;;;20.90;99.90;;;;;;4999418;28;20113;-66
2021/09/10 13:31:36;;;;;;;;;;;20.90;99.90;;;;;;5001629;28;19925;-66
2021/09/10 13:34:02;;;;;;;;;;;20.90;99.90;;;;;;5001890;28;19924;-66
2021/09/10 13:36:29;;;;;;;;;;;20.90;99.90;;;;;;5000751;28;19918;-66
2021/09/10 13:38:54;;;;;;;;;;;20.90;99.90;;;;;;4991654;28;19924;-65
2021/09/10 13:41:20;;;;;;;;;;;20.90;99.90;;;;;;4991803;28;19957;-66
2021/09/10 13:43:46;;;;;;;;;;;20.90;99.90;;;;;;4991441;28;20278;-66
2021/09/10 13:46:11;;;;;;;;;;;20.90;99.90;;;;;;4991468;28;20414;-66
2021/09/10 13:48:38;;;;;;;;;;;20.90;99.90;;;;;;4991733;28;19918;-66
2021/09/10 13:51:07;;;;;;;;;;;20.90;99.90;;;;;;4991156;28;20186;-66
2021/09/10 13:53:32;;;;;;;;;;;20.90;99.90;;;;;;4991606;28;19922;-66
2021/09/10 13:55:58;;;;;;;;;;;20.90;99.90;;;;;;4990840;28;19996;-66
2021/09/10 13:58:24;;;;;;;;;;;20.90;99.90;;;;;;4990346;28;19933;-66
2021/09/10 14:00:50;;;;;;;;;;;20.90;99.90;;;;;;4991663;28;19964;-66
2021/09/10 14:03:16;;;;;;;;;;;20.90;99.90;;;;;;4991263;28;19924;-65
2021/09/10 14:05:41;;;;;;;;;;;20.90;99.90;;;;;;4991258;28;20004;-65
2021/09/10 14:08:08;;;;;;;;;;;20.90;99.90;;;;;;4991683;28;19925;-65
2021/09/10 14:10:34;;;;;;;;;;;20.90;99.90;;;;;;4991085;28;20413;-65
2021/09/10 14:13:01;;;;;;;;;;;20.90;99.90;;;;;;4991224;28;19940;-64
2021/09/10 14:15:27;;;;;;;;;;;21.00;99.90;;;;;;4990729;28;20371;-66